createdAt,value
2023-08-19T00:00:27.844Z,55.53
2023-08-19T00:02:57.447Z,55.78
2023-08-19T00:05:25.413Z,55.85
2023-08-19T00:07:52.849Z,55.79
2023-08-19T00:10:20.165Z,55.91
2023-08-19T00:12:47.535Z,55.99
2023-08-19T00:15:14.930Z,56.00
2023-08-19T00:17:42.541Z,56.20
2023-08-19T00:20:12.065Z,55.89
2023-08-19T00:22:39.492Z,55.62
2023-08-19T00:25:07.070Z,55.36
2023-08-19T00:27:34.490Z,55.27
2023-08-19T00:30:02.034Z,55.65
2023-08-19T00:32:31.189Z,55.65
2023-08-19T00:34:58.566Z,55.32
2023-08-19T00:37:25.873Z,55.31
2023-08-19T00:39:53.862Z,55.53
2023-08-19T00:42:21.192Z,55.17
2023-08-19T00:44:48.659Z,55.60
2023-08-19T00:47:16.089Z,56.21
2023-08-19T00:49:43.691Z,56.30
2023-08-19T00:52:11.141Z,56.58
2023-08-19T00:54:38.588Z,56.34
2023-08-19T00:57:07.065Z,56.66
2023-08-19T00:59:34.397Z,56.87
2023-08-19T01:02:02.201Z,56.79
2023-08-19T01:04:29.631Z,56.70
2023-08-19T01:07:14.072Z,56.72
2023-08-19T01:09:43.589Z,56.63
2023-08-19T01:12:18.827Z,56.49
2023-08-19T01:15:05.631Z,56.38
2023-08-19T01:17:33.479Z,56.76
2023-08-19T01:20:01.615Z,56.69
2023-08-19T01:22:57.520Z,56.79
2023-08-19T01:25:25.654Z,56.91
2023-08-19T01:27:55.006Z,57.13
2023-08-19T01:30:22.448Z,57.27
2023-08-19T01:32:49.834Z,57.26
2023-08-19T01:35:18.575Z,57.23
2023-08-19T01:37:57.255Z,57.28
2023-08-19T01:40:24.859Z,57.46
2023-08-19T01:42:52.259Z,57.37
2023-08-19T01:45:19.609Z,57.60
2023-08-19T01:47:47.081Z,57.88
2023-08-19T01:50:14.441Z,57.68
2023-08-19T01:52:41.966Z,57.45
2023-08-19T01:55:10.362Z,57.28
2023-08-19T01:57:37.997Z,57.22
2023-08-19T02:00:08.305Z,57.09
2023-08-19T02:02:44.620Z,57.40
2023-08-19T02:05:15.959Z,57.52
2023-08-19T02:07:44.102Z,57.73
2023-08-19T02:10:13.400Z,57.92
2023-08-19T02:12:40.885Z,57.91
2023-08-19T02:15:08.861Z,58.34
2023-08-19T02:17:36.355Z,58.38
2023-08-19T02:20:04.626Z,58.63
2023-08-19T02:22:32.055Z,58.57
2023-08-19T02:24:59.544Z,58.60
2023-08-19T02:27:27.165Z,58.48
2023-08-19T02:29:55.200Z,58.65
2023-08-19T02:32:23.296Z,58.64
2023-08-19T02:34:51.551Z,58.73
2023-08-19T02:37:18.995Z,58.70
2023-08-19T02:39:46.444Z,58.58
2023-08-19T02:42:17.532Z,58.73
2023-08-19T02:44:45.089Z,58.70
2023-08-19T02:47:12.436Z,58.77
2023-08-19T02:51:54.712Z,64.37
2023-08-19T02:54:22.089Z,62.29
2023-08-19T02:56:49.655Z,62.88
2023-08-19T02:59:17.147Z,63.11
2023-08-19T03:01:44.481Z,63.07
2023-08-19T03:04:11.885Z,63.29
2023-08-19T03:06:39.731Z,62.80
2023-08-19T03:09:07.050Z,62.76
2023-08-19T03:11:34.621Z,62.84
2023-08-19T03:14:02.268Z,62.52
2023-08-19T03:16:30.097Z,62.44
2023-08-19T03:18:57.442Z,62.62
2023-08-19T03:21:24.846Z,62.44
2023-08-19T03:23:52.309Z,62.27
2023-08-19T03:26:20.155Z,62.00
2023-08-19T03:28:48.035Z,61.79
2023-08-19T03:31:16.152Z,61.13
2023-08-19T03:33:43.619Z,60.32
2023-08-19T03:36:11.939Z,59.48
2023-08-19T03:38:39.594Z,58.68
2023-08-19T03:41:07.050Z,58.01
2023-08-19T03:43:35.092Z,57.30
2023-08-19T03:46:02.604Z,56.41
2023-08-19T03:48:30.059Z,55.26
2023-08-19T03:50:57.420Z,54.21
2023-08-19T03:53:25.058Z,53.28
2023-08-19T03:55:52.745Z,52.83
2023-08-19T03:58:20.145Z,52.28
2023-08-19T04:00:48.989Z,51.16
2023-08-19T04:03:20.897Z,50.31
2023-08-19T04:05:48.250Z,49.48
2023-08-19T04:08:15.641Z,48.83
2023-08-19T04:10:42.998Z,48.13
2023-08-19T04:13:10.964Z,47.41
2023-08-19T04:15:38.352Z,47.13
2023-08-19T04:18:06.447Z,46.19
2023-08-19T04:20:38.480Z,44.79
2023-08-19T04:23:06.724Z,44.07
2023-08-19T04:25:34.103Z,43.89
2023-08-19T04:28:02.329Z,42.93
2023-08-19T04:30:29.945Z,42.77
2023-08-19T04:32:59.847Z,41.87
2023-08-19T04:35:31.338Z,41.56
2023-08-19T04:37:58.959Z,41.23
2023-08-19T04:40:26.711Z,40.06
2023-08-19T04:42:54.185Z,39.45
2023-08-19T04:45:22.272Z,39.20
2023-08-19T04:47:50.760Z,38.64
2023-08-19T04:50:18.521Z,38.24
2023-08-19T04:52:45.862Z,37.81
2023-08-19T04:55:16.174Z,36.86
2023-08-19T04:57:43.688Z,36.43
2023-08-19T05:00:13.598Z,36.08
2023-08-19T05:02:42.285Z,35.83
2023-08-19T05:05:09.675Z,35.94
2023-08-19T05:07:37.731Z,35.99
2023-08-19T05:10:05.434Z,35.81
2023-08-19T05:12:32.961Z,35.66
2023-08-19T05:15:00.814Z,35.42
2023-08-19T05:17:28.962Z,35.52
2023-08-19T05:19:56.753Z,35.57
2023-08-19T05:22:24.367Z,35.65
2023-08-19T05:24:51.750Z,35.60
2023-08-19T05:27:19.167Z,35.43
2023-08-19T05:29:46.641Z,35.04
2023-08-19T05:32:13.969Z,34.50
2023-08-19T05:34:43.442Z,34.30
2023-08-19T05:37:11.103Z,33.99
2023-08-19T05:39:38.512Z,33.45
2023-08-19T05:42:06.013Z,32.92
2023-08-19T05:44:33.405Z,32.13
2023-08-19T05:47:00.699Z,31.43
2023-08-19T05:49:28.822Z,31.34
2023-08-19T05:51:56.541Z,31.55
2023-08-19T05:54:23.832Z,31.48
2023-08-19T05:56:51.179Z,30.67
2023-08-19T05:59:18.636Z,30.43
2023-08-19T06:01:45.999Z,30.39
2023-08-19T06:04:13.562Z,29.80
2023-08-19T06:06:40.965Z,30.12
2023-08-19T06:09:08.914Z,29.93
2023-08-19T06:11:47.462Z,29.08
2023-08-19T06:14:15.182Z,28.96
2023-08-19T06:16:43.255Z,28.46
2023-08-19T06:19:13.520Z,27.88
2023-08-19T06:21:41.422Z,27.91
2023-08-19T06:24:09.139Z,27.66
2023-08-19T06:26:36.824Z,27.64
2023-08-19T06:29:04.490Z,27.59
2023-08-19T06:31:32.674Z,27.31
2023-08-19T06:34:00.296Z,27.01
2023-08-19T06:36:29.950Z,27.04
2023-08-19T06:39:30.251Z,26.74
2023-08-19T06:42:03.022Z,26.77
2023-08-19T06:44:33.959Z,26.61
2023-08-19T06:47:03.092Z,26.83
2023-08-19T06:49:30.728Z,26.91
2023-08-19T06:51:58.503Z,26.69
2023-08-19T06:54:26.092Z,26.46
2023-08-19T06:57:11.063Z,26.06
2023-08-19T06:59:39.810Z,24.95
2023-08-19T07:02:09.032Z,24.49
2023-08-19T07:04:37.280Z,24.08
2023-08-19T07:07:05.736Z,23.88
2023-08-19T07:09:35.050Z,23.93
2023-08-19T07:12:03.642Z,23.96
2023-08-19T07:14:31.535Z,24.05
2023-08-19T07:17:04.155Z,24.19
2023-08-19T07:19:33.663Z,24.37
2023-08-19T07:22:01.535Z,24.67
2023-08-19T07:24:28.853Z,24.42
2023-08-19T07:26:56.307Z,24.62
2023-08-19T07:29:24.098Z,25.16
2023-08-19T07:31:51.479Z,24.88
2023-08-19T07:34:18.958Z,24.16
2023-08-19T07:36:46.322Z,24.05
2023-08-19T07:39:15.004Z,23.76
2023-08-19T07:41:42.343Z,23.55
2023-08-19T07:44:09.791Z,23.58
2023-08-19T07:46:37.180Z,23.23
2023-08-19T07:49:04.606Z,22.87
2023-08-19T07:51:32.017Z,23.28
2023-08-19T07:53:59.445Z,23.27
2023-08-19T07:56:26.919Z,23.05
2023-08-19T07:58:54.449Z,22.69
2023-08-19T08:01:21.867Z,23.12
2023-08-19T08:03:49.858Z,23.09
2023-08-19T08:06:17.312Z,22.77
2023-08-19T08:08:44.728Z,22.00
2023-08-19T08:11:12.107Z,21.76
2023-08-19T08:13:39.756Z,21.80
2023-08-19T08:16:07.175Z,21.89
2023-08-19T08:18:35.008Z,21.94
2023-08-19T08:21:03.387Z,21.81
2023-08-19T08:23:32.905Z,22.33
2023-08-19T08:26:05.564Z,22.49
2023-08-19T08:28:33.035Z,22.53
2023-08-19T08:31:00.422Z,22.99
2023-08-19T08:33:27.796Z,23.02
2023-08-19T08:35:55.278Z,22.39
2023-08-19T08:38:23.233Z,21.86
2023-08-19T08:40:51.434Z,21.49
2023-08-19T08:43:20.958Z,21.22
2023-08-19T08:45:48.353Z,21.02
2023-08-19T08:48:17.660Z,20.94
2023-08-19T08:50:45.249Z,21.05
2023-08-19T08:53:13.976Z,20.60
2023-08-19T08:55:41.588Z,20.03
2023-08-19T08:58:09.032Z,20.16
2023-08-19T09:00:39.158Z,19.49
2023-08-19T09:03:06.851Z,19.76
2023-08-19T09:05:34.941Z,20.03
2023-08-19T09:08:02.399Z,20.65
2023-08-19T09:10:29.940Z,21.08
2023-08-19T09:12:59.045Z,21.44
2023-08-19T09:15:29.902Z,21.26
2023-08-19T09:17:58.661Z,20.86
2023-08-19T09:20:26.839Z,20.81
2023-08-19T09:23:09.075Z,20.11
2023-08-19T09:25:39.233Z,20.27
2023-08-19T09:28:07.328Z,20.32
2023-08-19T09:30:36.386Z,20.75
2023-08-19T09:33:04.094Z,21.44
2023-08-19T09:35:57.192Z,21.42
2023-08-19T09:38:26.314Z,21.34
2023-08-19T09:41:08.135Z,21.00
2023-08-19T09:43:41.797Z,20.85
2023-08-19T09:46:09.857Z,20.67
2023-08-19T09:48:37.611Z,20.56
2023-08-19T09:51:05.130Z,20.50
2023-08-19T09:53:32.601Z,20.94
2023-08-19T09:55:59.993Z,21.23
2023-08-19T09:58:27.439Z,21.36
2023-08-19T10:00:54.857Z,20.91
2023-08-19T10:03:22.312Z,20.68
2023-08-19T10:05:55.745Z,20.70
2023-08-19T10:08:24.600Z,21.23
2023-08-19T10:10:52.082Z,21.35
2023-08-19T10:13:19.404Z,21.43
2023-08-19T10:15:47.888Z,21.89
2023-08-19T10:18:18.308Z,21.91
2023-08-19T10:20:47.099Z,21.92
2023-08-19T10:23:14.552Z,21.86
2023-08-19T10:25:42.670Z,21.99
2023-08-19T10:28:14.675Z,22.11
2023-08-19T10:30:42.245Z,22.25
2023-08-19T10:33:30.276Z,22.25
2023-08-19T10:36:03.398Z,22.52
2023-08-19T10:38:45.212Z,22.85
2023-08-19T10:41:37.246Z,22.70
2023-08-19T10:44:05.413Z,22.80
2023-08-19T10:46:39.491Z,22.79
2023-08-19T10:49:15.727Z,22.56
2023-08-19T10:52:01.932Z,22.59
2023-08-19T10:54:40.078Z,21.84
2023-08-19T10:57:24.944Z,20.97
2023-08-19T11:00:00.304Z,20.82
2023-08-19T11:02:28.864Z,21.25
2023-08-19T11:04:58.712Z,21.45
2023-08-19T11:07:26.585Z,21.19
2023-08-19T11:09:55.470Z,21.52
2023-08-19T11:12:23.895Z,21.39
2023-08-19T11:14:56.614Z,21.43
2023-08-19T11:17:28.479Z,21.81
2023-08-19T11:19:56.969Z,22.15
2023-08-19T11:22:24.663Z,21.90
2023-08-19T11:24:52.614Z,21.63
2023-08-19T11:27:20.254Z,21.87
2023-08-19T11:29:48.476Z,21.54
2023-08-19T11:32:20.830Z,21.73
2023-08-19T11:34:48.460Z,21.78
2023-08-19T11:37:17.331Z,21.79
2023-08-19T11:39:46.062Z,21.64
2023-08-19T11:42:13.409Z,21.31
2023-08-19T11:44:44.573Z,21.12
2023-08-19T11:47:15.137Z,21.11
2023-08-19T11:49:46.012Z,21.60
2023-08-19T11:52:20.458Z,21.52
2023-08-19T11:55:01.328Z,21.69
2023-08-19T11:57:35.609Z,21.66
2023-08-19T12:00:06.303Z,21.23
2023-08-19T12:02:40.033Z,20.95
2023-08-19T12:05:08.224Z,20.84
2023-08-19T12:07:36.266Z,21.26
2023-08-19T12:10:05.349Z,21.78
2023-08-19T12:12:33.507Z,21.88
2023-08-19T12:15:02.253Z,21.82
2023-08-19T12:17:31.123Z,22.03
2023-08-19T12:19:58.520Z,21.85
2023-08-19T12:22:25.884Z,21.94
2023-08-19T12:24:53.281Z,21.73
2023-08-19T12:27:20.646Z,21.66
2023-08-19T12:29:49.930Z,21.35
2023-08-19T12:32:17.402Z,21.00
2023-08-19T12:34:44.731Z,20.82
2023-08-19T12:37:12.057Z,20.90
2023-08-19T12:39:39.491Z,20.63
2023-08-19T12:42:07.152Z,20.96
2023-08-19T12:44:34.639Z,21.21
2023-08-19T12:47:01.982Z,20.99
2023-08-19T12:49:29.341Z,21.03
2023-08-19T12:51:57.578Z,20.59
2023-08-19T12:54:25.101Z,20.15
2023-08-19T12:56:52.506Z,20.20
2023-08-19T12:59:19.885Z,20.17
2023-08-19T13:01:48.608Z,20.08
2023-08-19T13:04:15.991Z,20.46
2023-08-19T13:06:47.475Z,20.47
2023-08-19T13:09:15.086Z,20.53
2023-08-19T13:11:42.413Z,20.29
2023-08-19T13:14:09.748Z,21.20
2023-08-19T13:16:37.224Z,20.82
2023-08-19T13:19:04.978Z,20.84
2023-08-19T13:21:32.496Z,20.66
2023-08-19T13:23:59.891Z,20.87
2023-08-19T13:26:28.213Z,20.72
2023-08-19T13:28:55.527Z,20.56
2023-08-19T13:31:24.005Z,21.39
2023-08-19T13:33:51.550Z,21.49
2023-08-19T13:36:18.851Z,21.70
2023-08-19T13:38:46.179Z,21.40
2023-08-19T13:41:13.776Z,21.53
2023-08-19T13:43:42.227Z,22.11
2023-08-19T13:46:09.618Z,21.85
2023-08-19T13:48:37.031Z,22.00
2023-08-19T13:51:04.688Z,22.22
2023-08-19T13:53:32.290Z,22.45
2023-08-19T13:55:59.749Z,23.03
2023-08-19T13:58:27.061Z,23.22
2023-08-19T14:00:54.412Z,23.12
2023-08-19T14:03:22.404Z,22.99
2023-08-19T14:05:50.006Z,23.24
2023-08-19T14:08:17.506Z,22.99
2023-08-19T14:10:48.806Z,22.78
2023-08-19T14:13:16.167Z,23.09
2023-08-19T14:15:43.475Z,23.11
2023-08-19T14:18:10.892Z,23.22
2023-08-19T14:20:38.502Z,23.41
2023-08-19T14:23:05.827Z,23.39
2023-08-19T14:25:33.124Z,23.17
2023-08-19T14:28:00.462Z,22.85
2023-08-19T14:30:27.964Z,22.86
2023-08-19T14:32:55.297Z,22.61
2023-08-19T14:35:22.748Z,23.07
2023-08-19T14:37:50.228Z,23.31
2023-08-19T14:40:20.606Z,23.44
2023-08-19T14:42:48.564Z,23.45
2023-08-19T14:45:16.648Z,23.56
2023-08-19T14:47:44.057Z,23.72
2023-08-19T14:50:11.511Z,23.23
2023-08-19T14:52:39.135Z,23.48
2023-08-19T14:55:09.112Z,23.52
2023-08-19T14:57:38.662Z,23.81
2023-08-19T15:00:12.264Z,24.01
2023-08-19T15:02:48.077Z,24.16
2023-08-19T15:05:15.838Z,24.18
2023-08-19T15:09:36.481Z,25.99
2023-08-19T15:12:05.068Z,24.71
2023-08-19T15:14:32.460Z,24.46
2023-08-19T15:16:59.799Z,24.26
2023-08-19T15:19:27.164Z,24.25
2023-08-19T15:21:54.986Z,24.66
2023-08-19T15:24:22.303Z,25.01
2023-08-19T15:26:49.666Z,25.05
2023-08-19T15:29:17.194Z,24.96
2023-08-19T15:31:44.632Z,25.10
2023-08-19T15:34:11.969Z,25.24
2023-08-19T15:36:39.319Z,25.21
2023-08-19T15:39:06.692Z,25.15
2023-08-19T15:41:34.098Z,25.22
2023-08-19T15:44:01.847Z,25.15
2023-08-19T15:46:29.319Z,25.32
2023-08-19T15:48:56.649Z,25.48
2023-08-19T15:51:23.981Z,25.61
2023-08-19T15:53:52.420Z,25.69
2023-08-19T15:56:20.657Z,25.89
2023-08-19T15:58:51.521Z,25.63
2023-08-19T16:01:18.921Z,25.85
2023-08-19T16:03:46.230Z,25.98
2023-08-19T16:06:13.670Z,25.92
2023-08-19T16:08:41.122Z,25.95
2023-08-19T16:11:09.158Z,26.02
2023-08-19T16:13:36.487Z,26.01
2023-08-19T16:16:03.988Z,26.08
2023-08-19T16:18:32.004Z,25.92
2023-08-19T16:20:59.842Z,26.23
2023-08-19T16:23:28.034Z,26.55
2023-08-19T16:25:55.391Z,26.79
2023-08-19T16:28:22.751Z,27.04
2023-08-19T16:30:50.122Z,27.00
2023-08-19T16:33:17.454Z,26.95
2023-08-19T16:35:45.642Z,26.95
2023-08-19T16:38:12.982Z,27.30
2023-08-19T16:40:40.412Z,27.40
2023-08-19T16:43:09.767Z,27.36
2023-08-19T16:45:37.109Z,27.75
2023-08-19T16:48:04.988Z,28.40
2023-08-19T16:50:32.423Z,28.64
2023-08-19T16:52:59.728Z,28.88
2023-08-19T16:55:27.132Z,29.70
2023-08-19T16:57:54.502Z,30.17
2023-08-19T17:00:24.010Z,30.38
2023-08-19T17:02:51.489Z,30.45
2023-08-19T17:05:19.223Z,30.35
2023-08-19T17:07:46.791Z,31.21
2023-08-19T17:10:14.082Z,32.47
2023-08-19T17:12:41.399Z,32.78
2023-08-19T17:15:08.918Z,32.84
2023-08-19T17:17:36.602Z,33.40
2023-08-19T17:20:07.670Z,33.53
2023-08-19T17:22:38.583Z,33.87
2023-08-19T17:25:06.272Z,34.38
2023-08-19T17:27:33.785Z,34.34
2023-08-19T17:30:01.312Z,34.29
2023-08-19T17:32:28.782Z,35.04
2023-08-19T17:34:56.067Z,35.59
2023-08-19T17:37:23.395Z,35.81
2023-08-19T17:39:50.947Z,36.25
2023-08-19T17:42:19.393Z,36.63
2023-08-19T17:44:54.371Z,36.82
2023-08-19T17:47:21.898Z,37.04
2023-08-19T17:49:49.233Z,37.04
2023-08-19T17:52:16.556Z,37.17
2023-08-19T17:54:43.968Z,37.25
2023-08-19T17:57:13.428Z,37.54
2023-08-19T17:59:40.768Z,37.13
2023-08-19T18:02:08.310Z,37.45
2023-08-19T18:04:35.771Z,38.12
2023-08-19T18:07:03.524Z,39.15
2023-08-19T18:09:30.929Z,39.98
2023-08-19T18:12:01.069Z,40.52
2023-08-19T18:14:28.381Z,40.82
2023-08-19T18:16:56.402Z,41.11
2023-08-19T18:19:34.687Z,41.33
2023-08-19T18:22:03.612Z,41.58
2023-08-19T18:24:31.760Z,41.53
2023-08-19T18:27:00.035Z,41.52
2023-08-19T18:29:27.803Z,42.31
2023-08-19T18:31:57.219Z,42.65
2023-08-19T18:34:24.949Z,42.62
2023-08-19T18:36:52.257Z,42.53
2023-08-19T18:39:19.670Z,42.88
2023-08-19T18:41:47.131Z,42.42
2023-08-19T18:44:14.502Z,42.18
2023-08-19T18:46:41.974Z,42.22
2023-08-19T18:49:09.350Z,42.15
2023-08-19T18:51:36.805Z,42.40
2023-08-19T18:54:04.575Z,42.87
2023-08-19T18:56:31.921Z,42.27
2023-08-19T18:59:00.149Z,41.95
2023-08-19T19:01:27.693Z,41.75
2023-08-19T19:03:56.976Z,42.29
2023-08-19T19:06:25.749Z,42.12
2023-08-19T19:08:54.976Z,41.66
2023-08-19T19:11:24.152Z,42.34
2023-08-19T19:13:51.456Z,43.22
2023-08-19T19:16:18.762Z,43.33
2023-08-19T19:18:46.213Z,44.01
2023-08-19T19:21:13.672Z,44.25
2023-08-19T19:23:41.022Z,44.78
2023-08-19T19:26:08.427Z,44.02
2023-08-19T19:28:36.120Z,43.00
2023-08-19T19:31:06.210Z,43.89
2023-08-19T19:33:34.942Z,44.75
2023-08-19T19:36:02.326Z,45.49
2023-08-19T19:38:29.736Z,45.85
2023-08-19T19:40:59.282Z,45.74
2023-08-19T19:43:26.577Z,45.92
2023-08-19T19:45:54.419Z,45.22
2023-08-19T19:48:21.859Z,45.08
2023-08-19T19:50:49.380Z,45.52
2023-08-19T19:53:16.721Z,45.97
2023-08-19T19:55:45.650Z,47.35
2023-08-19T19:58:14.014Z,48.07
2023-08-19T20:00:41.461Z,48.64
2023-08-19T20:03:09.136Z,48.63
2023-08-19T20:05:36.626Z,48.66
2023-08-19T20:08:04.161Z,48.73
2023-08-19T20:10:31.511Z,48.38
2023-08-19T20:12:58.847Z,48.70
2023-08-19T20:15:29.842Z,49.42
2023-08-19T20:17:57.931Z,49.27
2023-08-19T20:20:25.482Z,49.45
2023-08-19T20:22:53.020Z,49.52
2023-08-19T20:25:20.443Z,49.87
2023-08-19T20:27:47.835Z,50.32
2023-08-19T20:30:15.280Z,49.98
2023-08-19T20:32:42.707Z,49.93
2023-08-19T20:35:12.469Z,49.78
2023-08-19T20:37:40.049Z,49.60
2023-08-19T20:40:08.402Z,49.67
2023-08-19T20:42:35.757Z,49.86
2023-08-19T20:45:03.230Z,49.81
2023-08-19T20:47:30.878Z,49.98
2023-08-19T20:49:58.283Z,49.87
2023-08-19T20:52:25.669Z,50.62
2023-08-19T20:54:53.028Z,51.59
2023-08-19T20:57:20.849Z,50.82
2023-08-19T20:59:48.143Z,50.84
2023-08-19T21:02:15.470Z,51.26
2023-08-19T21:04:42.788Z,52.08
2023-08-19T21:07:12.294Z,52.87
2023-08-19T21:09:39.884Z,52.36
2023-08-19T21:12:07.423Z,52.00
2023-08-19T21:14:34.782Z,51.58
2023-08-19T21:17:03.867Z,51.92
2023-08-19T21:19:31.188Z,51.94
2023-08-19T21:21:58.895Z,52.00
2023-08-19T21:24:26.231Z,52.41
2023-08-19T21:26:53.678Z,52.25
2023-08-19T21:29:20.984Z,52.77
2023-08-19T21:31:48.314Z,52.35
2023-08-19T21:34:15.728Z,52.28
2023-08-19T21:36:43.055Z,52.40
2023-08-19T21:39:10.357Z,52.42
2023-08-19T21:41:41.145Z,52.78
2023-08-19T21:44:08.531Z,53.34
2023-08-19T21:46:35.854Z,53.80
2023-08-19T21:49:03.566Z,54.00
2023-08-19T21:51:30.897Z,53.88
2023-08-19T21:53:58.276Z,54.22
2023-08-19T21:56:25.749Z,54.21
2023-08-19T21:58:53.122Z,54.39
2023-08-19T22:01:20.409Z,54.61
2023-08-19T22:03:47.739Z,54.09
2023-08-19T22:06:15.129Z,53.13
2023-08-19T22:08:42.821Z,52.98
2023-08-19T22:11:10.129Z,53.15
2023-08-19T22:13:37.600Z,53.52
2023-08-19T22:16:05.202Z,53.75
2023-08-19T22:18:32.514Z,53.83
2023-08-19T22:21:00.818Z,54.10
2023-08-19T22:23:28.197Z,54.31
2023-08-19T22:25:55.589Z,54.52
2023-08-19T22:28:22.903Z,54.42
2023-08-19T22:30:50.295Z,54.01
2023-08-19T22:33:17.794Z,54.43
2023-08-19T22:35:45.245Z,54.93
2023-08-19T22:38:12.780Z,54.81
2023-08-19T22:40:42.059Z,54.65
2023-08-19T22:43:10.103Z,54.58
2023-08-19T22:45:37.532Z,54.64
2023-08-19T22:48:05.319Z,54.82
2023-08-19T22:50:32.778Z,54.94
2023-08-19T22:53:00.185Z,55.29
2023-08-19T22:55:27.608Z,55.39
2023-08-19T22:57:54.970Z,55.34
2023-08-19T23:00:22.364Z,55.38
2023-08-19T23:02:49.780Z,55.18
2023-08-19T23:05:17.213Z,54.81
2023-08-19T23:07:44.687Z,55.27
2023-08-19T23:10:12.234Z,55.25
2023-08-19T23:12:41.448Z,55.29
2023-08-19T23:15:09.180Z,55.60
2023-08-19T23:17:36.753Z,54.97
2023-08-19T23:20:05.442Z,55.31
2023-08-19T23:22:32.765Z,55.17
2023-08-19T23:25:00.136Z,55.20
2023-08-19T23:27:27.519Z,55.35
2023-08-19T23:29:54.983Z,55.27
2023-08-19T23:32:22.345Z,55.45
2023-08-19T23:34:49.814Z,55.62
2023-08-19T23:37:17.199Z,55.63
2023-08-19T23:39:44.604Z,55.76
2023-08-19T23:42:12.005Z,55.73
2023-08-19T23:44:39.388Z,56.02
2023-08-19T23:47:07.133Z,56.22
2023-08-19T23:49:34.729Z,56.27
2023-08-19T23:52:02.167Z,57.02
2023-08-19T23:54:29.880Z,56.97
2023-08-19T23:56:57.448Z,56.76
2023-08-19T23:59:26.882Z,56.87
